createdAt,value
2022-10-29T00:01:07.431Z,22.70
2022-10-29T00:03:34.247Z,17.45
2022-10-29T00:06:04.539Z,17.33
2022-10-29T00:08:34.869Z,21.98
2022-10-29T00:11:34.731Z,15.48
2022-10-29T00:14:01.985Z,20.17
2022-10-29T00:16:36.207Z,27.80
2022-10-29T00:19:04.365Z,21.33
2022-10-29T00:21:32.045Z,26.80
2022-10-29T00:23:59.018Z,24.13
2022-10-29T00:26:29.139Z,28.63
2022-10-29T00:28:57.310Z,19.38
2022-10-29T00:31:25.203Z,24.75
2022-10-29T00:33:54.845Z,21.73
2022-10-29T00:36:26.422Z,25.05
2022-10-29T00:38:53.608Z,16.08
2022-10-29T00:41:26.725Z,20.35
2022-10-29T00:44:19.092Z,24.00
2022-10-29T00:46:51.709Z,32.33
2022-10-29T00:49:19.304Z,23.95
2022-10-29T00:51:47.853Z,20.85
2022-10-29T00:54:16.665Z,26.85
2022-10-29T00:56:53.289Z,23.88
2022-10-29T00:59:20.263Z,24.63
2022-10-29T01:01:49.261Z,28.00
2022-10-29T01:04:17.931Z,23.35
2022-10-29T01:06:47.291Z,28.08
2022-10-29T01:09:14.394Z,34.25
2022-10-29T01:11:50.650Z,19.52
2022-10-29T01:14:40.785Z,18.50
2022-10-29T01:17:47.396Z,21.13
2022-10-29T01:20:55.269Z,26.75
2022-10-29T01:23:40.381Z,16.60
2022-10-29T01:26:12.827Z,22.02
2022-10-29T01:29:00.661Z,22.60
2022-10-29T01:32:15.274Z,25.92
2022-10-29T01:34:51.403Z,22.48
2022-10-29T01:37:36.763Z,26.75
2022-10-29T01:40:39.728Z,22.38
2022-10-29T01:43:21.076Z,21.15
2022-10-29T01:46:05.840Z,26.35
2022-10-29T01:48:37.542Z,27.67
2022-10-29T01:51:13.644Z,31.30
2022-10-29T01:53:41.734Z,27.40
2022-10-29T01:56:08.571Z,26.13
2022-10-29T01:58:37.255Z,16.50
2022-10-29T02:01:16.000Z,22.60
2022-10-29T02:04:21.637Z,26.98
2022-10-29T02:07:22.103Z,18.35
2022-10-29T02:10:38.951Z,26.50
2022-10-29T02:13:05.800Z,22.33
2022-10-29T02:15:48.466Z,23.85
2022-10-29T02:18:17.125Z,25.83
2022-10-29T02:20:45.490Z,24.42
2022-10-29T02:23:13.435Z,21.98
2022-10-29T02:25:40.393Z,23.90
2022-10-29T02:28:07.250Z,24.50
2022-10-29T02:30:34.235Z,27.17
2022-10-29T02:33:01.040Z,26.23
2022-10-29T02:35:28.132Z,20.55
2022-10-29T02:37:54.918Z,19.90
2022-10-29T02:40:21.703Z,26.52
2022-10-29T02:42:48.462Z,20.80
2022-10-29T02:45:15.249Z,26.55
2022-10-29T02:47:42.027Z,28.65
2022-10-29T02:50:09.766Z,21.10
2022-10-29T02:52:36.584Z,26.50
2022-10-29T02:55:03.747Z,16.33
2022-10-29T02:57:30.516Z,19.95
2022-10-29T02:59:57.286Z,20.80
2022-10-29T03:02:24.540Z,26.08
2022-10-29T03:04:51.391Z,23.02
2022-10-29T03:07:18.205Z,17.38
2022-10-29T03:09:44.981Z,23.00
2022-10-29T03:12:11.731Z,20.80
2022-10-29T03:14:38.508Z,26.98
2022-10-29T03:17:05.313Z,21.63
2022-10-29T03:19:32.074Z,22.42
2022-10-29T03:21:58.835Z,25.52
2022-10-29T03:24:25.576Z,20.67
2022-10-29T03:26:52.354Z,23.73
2022-10-29T03:29:19.094Z,26.15
2022-10-29T03:31:45.870Z,20.10
2022-10-29T03:34:12.647Z,29.23
2022-10-29T03:36:39.454Z,25.52
2022-10-29T03:39:06.468Z,27.25
2022-10-29T03:41:33.229Z,21.70
2022-10-29T03:43:59.957Z,23.48
2022-10-29T03:46:26.843Z,23.38
2022-10-29T03:48:53.598Z,21.02
2022-10-29T03:51:20.735Z,21.73
2022-10-29T03:53:47.519Z,24.58
2022-10-29T03:56:14.322Z,24.17
2022-10-29T03:58:41.074Z,26.17
2022-10-29T04:01:10.566Z,20.35
2022-10-29T04:03:39.493Z,23.08
2022-10-29T04:06:13.148Z,26.95
2022-10-29T04:08:40.862Z,24.17
2022-10-29T04:11:11.965Z,26.35
2022-10-29T04:13:39.798Z,25.02
2022-10-29T04:16:06.932Z,19.73
2022-10-29T04:18:33.793Z,16.23
2022-10-29T04:29:24.184Z,25.27
2022-10-29T04:31:51.311Z,27.95
2022-10-29T04:34:18.615Z,23.00
2022-10-29T04:36:45.975Z,25.15
2022-10-29T04:39:12.811Z,25.13
2022-10-29T04:41:39.966Z,22.00
2022-10-29T04:44:06.754Z,18.40
2022-10-29T04:46:33.577Z,24.55
2022-10-29T04:49:00.444Z,19.45
2022-10-29T04:51:27.606Z,16.70
2022-10-29T04:53:54.621Z,18.20
2022-10-29T04:56:21.383Z,20.40
2022-10-29T04:58:52.755Z,34.28
2022-10-29T05:01:20.072Z,15.27
2022-10-29T05:03:47.082Z,17.98
2022-10-29T05:06:13.866Z,22.70
2022-10-29T05:08:40.645Z,20.65
2022-10-29T05:11:08.185Z,17.75
2022-10-29T05:13:35.559Z,22.77
2022-10-29T05:16:02.956Z,18.83
2022-10-29T05:18:29.759Z,15.60
2022-10-29T05:20:57.434Z,27.17
2022-10-29T05:23:24.592Z,21.73
2022-10-29T05:25:52.582Z,17.13
2022-10-29T05:28:22.068Z,23.33
2022-10-29T05:30:51.203Z,20.42
2022-10-29T05:33:22.963Z,20.15
2022-10-29T05:35:50.687Z,23.75
2022-10-29T05:38:17.926Z,22.13
2022-10-29T05:40:45.526Z,23.88
2022-10-29T05:43:17.556Z,26.80
2022-10-29T05:45:45.043Z,25.30
2022-10-29T05:51:00.276Z,20.10
2022-10-29T05:53:27.047Z,21.17
2022-10-29T05:55:53.830Z,25.70
2022-10-29T05:58:20.582Z,21.20
2022-10-29T06:00:47.373Z,19.65
2022-10-29T06:03:17.979Z,19.52
2022-10-29T06:05:47.102Z,19.38
2022-10-29T06:08:14.334Z,19.52
2022-10-29T06:10:41.549Z,20.00
2022-10-29T06:13:16.567Z,20.42
2022-10-29T06:18:11.103Z,19.88
2022-10-29T06:20:38.910Z,19.75
2022-10-29T06:23:06.782Z,20.83
2022-10-29T06:25:33.585Z,19.08
2022-10-29T06:28:09.216Z,17.33
2022-10-29T06:30:36.965Z,22.17
2022-10-29T06:33:05.428Z,15.50
2022-10-29T06:38:19.825Z,15.05
2022-10-29T06:40:55.347Z,16.75
2022-10-29T06:43:22.280Z,14.45
2022-10-29T06:45:50.311Z,14.50
2022-10-29T06:48:21.764Z,11.63
2022-10-29T06:50:49.403Z,13.75
2022-10-29T06:53:16.778Z,12.27
2022-10-29T06:55:43.560Z,11.45
2022-10-29T06:58:16.699Z,11.75
2022-10-29T07:00:44.577Z,11.50
2022-10-29T07:03:17.813Z,10.82
2022-10-29T07:05:45.070Z,10.85
2022-10-29T07:08:12.759Z,11.63
2022-10-29T07:10:40.971Z,8.02
2022-10-29T07:13:07.726Z,10.45
2022-10-29T07:15:34.553Z,12.15
2022-10-29T07:18:03.717Z,11.75
2022-10-29T07:20:34.155Z,10.60
2022-10-29T07:23:01.621Z,17.35
2022-10-29T07:25:29.896Z,10.18
2022-10-29T07:28:11.910Z,13.68
2022-10-29T07:30:39.351Z,12.73
2022-10-29T07:33:06.209Z,14.05
2022-10-29T07:35:34.717Z,15.82
2022-10-29T07:38:08.793Z,18.83
2022-10-29T07:40:47.377Z,18.75
2022-10-29T07:43:14.707Z,16.42
2022-10-29T07:45:44.421Z,15.23
2022-10-29T07:48:11.622Z,17.00
2022-10-29T07:50:39.444Z,20.80
2022-10-29T07:53:07.636Z,16.33
2022-10-29T07:55:35.014Z,17.85
2022-10-29T07:58:05.631Z,16.85
2022-10-29T08:00:36.139Z,19.52
2022-10-29T08:03:03.248Z,19.55
2022-10-29T08:05:31.125Z,20.45
2022-10-29T08:07:59.287Z,21.60
2022-10-29T08:10:27.300Z,16.95
2022-10-29T08:12:57.605Z,18.85
2022-10-29T08:15:28.214Z,21.92
2022-10-29T08:17:55.803Z,18.08
2022-10-29T08:20:26.051Z,21.42
2022-10-29T08:22:53.497Z,21.13
2022-10-29T08:25:21.360Z,24.35
2022-10-29T08:28:02.754Z,22.23
2022-10-29T08:30:30.781Z,23.23
2022-10-29T08:32:58.198Z,25.27
2022-10-29T08:35:25.217Z,31.15
2022-10-29T08:37:52.017Z,27.67
2022-10-29T08:40:35.226Z,19.08
2022-10-29T08:43:34.124Z,25.65
2022-10-29T08:46:01.276Z,27.50
2022-10-29T08:48:34.022Z,27.13
2022-10-29T08:51:14.987Z,27.23
2022-10-29T08:53:58.909Z,31.98
2022-10-29T08:56:38.442Z,27.02
2022-10-29T08:59:11.361Z,29.17
2022-10-29T09:01:39.052Z,35.13
2022-10-29T09:04:33.714Z,26.70
2022-10-29T09:07:48.623Z,35.10
2022-10-29T09:10:29.038Z,29.35
2022-10-29T09:13:40.792Z,31.80
2022-10-29T09:16:48.675Z,24.23
2022-10-29T09:19:23.570Z,35.38
2022-10-29T09:22:04.132Z,30.40
2022-10-29T09:24:45.528Z,29.35
2022-10-29T09:27:24.719Z,35.00
2022-10-29T09:30:22.085Z,34.53
2022-10-29T09:32:56.771Z,31.15
2022-10-29T09:35:44.753Z,36.83
2022-10-29T09:38:19.865Z,37.05
2022-10-29T09:43:19.861Z,31.58
2022-10-29T09:46:01.339Z,41.28
2022-10-29T09:48:44.722Z,36.17
2022-10-29T09:51:35.672Z,35.45
2022-10-29T09:54:02.922Z,43.40
2022-10-29T09:56:30.072Z,40.20
2022-10-29T09:59:26.776Z,34.45
2022-10-29T10:01:53.781Z,36.33
2022-10-29T10:04:46.073Z,35.20
2022-10-29T10:07:21.920Z,37.78
2022-10-29T10:09:55.800Z,38.90
2022-10-29T10:12:38.386Z,39.85
2022-10-29T10:15:15.765Z,37.80
2022-10-29T10:18:01.382Z,42.45
2022-10-29T10:20:35.807Z,34.55
2022-10-29T10:23:20.842Z,35.33
2022-10-29T10:25:48.102Z,34.85
2022-10-29T10:28:24.361Z,29.67
2022-10-29T10:31:16.692Z,31.65
2022-10-29T10:33:53.651Z,34.60
2022-10-29T10:36:29.436Z,36.47
2022-10-29T10:39:00.642Z,29.23
2022-10-29T10:41:34.769Z,30.50
2022-10-29T10:44:04.677Z,33.13
2022-10-29T10:46:43.841Z,32.03
2022-10-29T10:49:35.673Z,27.13
2022-10-29T10:52:25.980Z,34.80
2022-10-29T10:55:07.366Z,33.88
2022-10-29T10:57:50.415Z,28.02
2022-10-29T11:00:22.763Z,32.13
2022-10-29T11:02:58.446Z,27.85
2022-10-29T11:05:35.978Z,33.13
2022-10-29T11:08:18.215Z,25.48
2022-10-29T11:11:06.092Z,23.92
2022-10-29T11:13:34.971Z,25.15
2022-10-29T11:16:23.462Z,29.55
2022-10-29T11:19:08.820Z,25.63
2022-10-29T11:21:37.579Z,31.98
2022-10-29T11:24:20.869Z,27.10
2022-10-29T11:26:54.942Z,27.25
2022-10-29T11:29:21.637Z,24.02
2022-10-29T11:32:05.420Z,26.63
2022-10-29T11:34:44.310Z,26.50
2022-10-29T11:37:39.103Z,26.48
2022-10-29T11:40:28.895Z,26.73
2022-10-29T11:42:55.691Z,23.63
2022-10-29T11:45:57.990Z,25.27
2022-10-29T11:48:45.057Z,29.30
2022-10-29T11:51:48.898Z,30.52
2022-10-29T11:55:00.610Z,27.13
2022-10-29T11:57:39.672Z,23.15
2022-10-29T12:00:21.388Z,24.20
2022-10-29T12:03:03.406Z,27.02
2022-10-29T12:05:42.211Z,23.27
2022-10-29T12:08:27.856Z,21.27
2022-10-29T12:11:31.365Z,19.27
2022-10-29T12:14:30.088Z,20.00
2022-10-29T12:17:14.109Z,24.13
2022-10-29T12:19:55.996Z,17.83
2022-10-29T12:22:38.991Z,15.45
2022-10-29T12:25:51.900Z,20.70
2022-10-29T12:28:53.484Z,21.33
2022-10-29T12:31:56.163Z,20.08
2022-10-29T12:34:53.295Z,15.73
2022-10-29T12:37:32.378Z,15.82
2022-10-29T12:40:16.304Z,13.63
2022-10-29T12:42:43.953Z,17.95
2022-10-29T12:46:21.473Z,18.35
2022-10-29T12:49:05.806Z,17.13
2022-10-29T12:52:01.812Z,22.27
2022-10-29T12:54:42.373Z,18.80
2022-10-29T12:57:15.186Z,18.60
2022-10-29T12:59:44.484Z,16.55
2022-10-29T13:02:37.545Z,16.95
2022-10-29T13:05:07.149Z,23.27
2022-10-29T13:07:35.316Z,19.63
2022-10-29T13:10:24.197Z,14.20
2022-10-29T13:13:16.135Z,11.90
2022-10-29T13:15:45.629Z,15.57
2022-10-29T13:18:12.327Z,13.90
2022-10-29T13:20:42.387Z,14.43
2022-10-29T13:23:24.435Z,15.90
2022-10-29T13:25:56.385Z,16.83
2022-10-29T13:28:23.082Z,17.77
2022-10-29T13:30:53.273Z,14.10
2022-10-29T13:33:29.064Z,17.67
2022-10-29T13:36:15.581Z,14.18
2022-10-29T13:39:04.621Z,20.30
2022-10-29T13:41:44.681Z,17.33
2022-10-29T13:44:38.138Z,15.40
2022-10-29T13:47:20.669Z,19.25
2022-10-29T13:49:49.190Z,15.55
2022-10-29T13:52:19.863Z,17.45
2022-10-29T13:54:54.527Z,14.73
2022-10-29T13:57:42.946Z,17.95
2022-10-29T14:00:12.774Z,13.23
2022-10-29T14:02:42.753Z,14.20
2022-10-29T14:05:30.133Z,17.38
2022-10-29T14:08:17.819Z,17.80
2022-10-29T14:10:48.869Z,17.20
2022-10-29T14:13:44.748Z,16.38
2022-10-29T14:16:15.567Z,17.35
2022-10-29T14:18:45.834Z,14.70
2022-10-29T14:21:38.818Z,14.63
2022-10-29T14:24:09.100Z,17.58
2022-10-29T14:26:41.484Z,17.20
2022-10-29T14:29:25.899Z,19.55
2022-10-29T14:32:14.136Z,20.10
2022-10-29T14:34:42.048Z,19.27
2022-10-29T14:37:28.863Z,13.07
2022-10-29T14:40:00.160Z,17.48
2022-10-29T14:42:37.659Z,15.07
2022-10-29T14:45:30.045Z,16.50
2022-10-29T14:48:03.316Z,15.43
2022-10-29T14:50:31.447Z,11.90
2022-10-29T14:53:03.132Z,12.73
2022-10-29T14:55:40.303Z,15.10
2022-10-29T14:58:10.309Z,14.07
2022-10-29T15:00:38.581Z,16.15
2022-10-29T15:03:07.443Z,13.57
2022-10-29T15:05:37.565Z,11.20
2022-10-29T15:08:11.325Z,12.20
2022-10-29T15:11:04.745Z,14.02
2022-10-29T15:13:35.036Z,16.27
2022-10-29T15:16:04.159Z,10.63
2022-10-29T15:18:34.055Z,14.52
2022-10-29T15:21:01.523Z,19.75
2022-10-29T15:23:34.232Z,16.33
2022-10-29T15:26:12.848Z,13.40
2022-10-29T15:28:43.883Z,14.98
2022-10-29T15:31:46.357Z,15.10
2022-10-29T15:34:33.896Z,17.17
2022-10-29T15:37:20.347Z,12.63
2022-10-29T15:40:01.244Z,11.02
2022-10-29T15:42:32.669Z,13.00
2022-10-29T15:45:08.902Z,13.38
2022-10-29T15:47:42.098Z,12.55
2022-10-29T15:50:17.081Z,16.92
2022-10-29T15:52:52.767Z,12.93
2022-10-29T15:55:31.074Z,13.48
2022-10-29T15:58:04.493Z,13.88
2022-10-29T16:00:32.847Z,14.07
2022-10-29T16:03:24.055Z,11.07
2022-10-29T16:06:04.209Z,12.50
2022-10-29T16:08:42.709Z,13.98
2022-10-29T16:11:20.257Z,10.90
2022-10-29T16:13:51.831Z,12.43
2022-10-29T16:16:25.049Z,9.60
2022-10-29T16:18:52.917Z,12.75
2022-10-29T16:21:24.164Z,10.65
2022-10-29T16:23:52.042Z,10.75
2022-10-29T16:26:23.203Z,8.45
2022-10-29T16:28:52.727Z,9.15
2022-10-29T16:31:23.380Z,14.25
2022-10-29T16:33:53.007Z,12.32
2022-10-29T16:36:20.164Z,13.10
2022-10-29T16:38:46.987Z,12.18
2022-10-29T16:41:17.354Z,13.90
2022-10-29T16:43:45.227Z,10.60
2022-10-29T16:46:13.322Z,11.38
2022-10-29T16:48:40.959Z,11.25
2022-10-29T16:51:08.461Z,9.32
2022-10-29T16:53:35.663Z,13.77
2022-10-29T16:56:02.845Z,14.70
2022-10-29T16:58:29.685Z,15.40
2022-10-29T17:01:10.630Z,12.18
2022-10-29T17:03:39.477Z,14.10
2022-10-29T17:06:12.051Z,13.27
2022-10-29T17:08:39.000Z,11.18
2022-10-29T17:11:10.364Z,11.75
2022-10-29T17:13:37.882Z,13.35
2022-10-29T17:16:10.244Z,17.08
2022-10-29T17:18:37.229Z,14.15
2022-10-29T17:21:04.246Z,14.55
2022-10-29T17:23:33.310Z,13.55
2022-10-29T17:26:00.409Z,12.95
2022-10-29T17:28:28.355Z,18.10
2022-10-29T17:30:55.190Z,12.52
2022-10-29T17:33:21.978Z,15.40
2022-10-29T17:35:48.823Z,12.25
2022-10-29T17:38:15.891Z,12.73
2022-10-29T17:40:46.631Z,9.40
2022-10-29T17:43:13.682Z,21.55
2022-10-29T17:45:42.165Z,13.45
2022-10-29T17:48:08.982Z,12.43
2022-10-29T17:50:36.366Z,16.45
2022-10-29T17:53:03.800Z,17.08
2022-10-29T17:55:33.863Z,13.65
2022-10-29T17:58:01.119Z,18.15
2022-10-29T18:00:28.335Z,17.10
2022-10-29T18:02:55.142Z,18.17
2022-10-29T18:05:22.277Z,13.38
2022-10-29T18:07:49.032Z,19.02
2022-10-29T18:10:17.315Z,13.30
2022-10-29T18:12:44.538Z,14.57
2022-10-29T18:15:11.381Z,16.88
2022-10-29T18:17:38.211Z,14.82
2022-10-29T18:20:05.749Z,16.15
2022-10-29T18:22:32.742Z,15.60
2022-10-29T18:24:59.513Z,15.82
2022-10-29T18:27:26.351Z,22.02
2022-10-29T18:29:53.247Z,18.05
2022-10-29T18:32:20.393Z,16.30
2022-10-29T18:34:47.232Z,16.40
2022-10-29T18:37:14.048Z,24.08
2022-10-29T18:39:40.874Z,23.20
2022-10-29T18:42:07.840Z,14.38
2022-10-29T18:44:34.909Z,17.30
2022-10-29T18:47:02.272Z,17.33
2022-10-29T18:49:29.021Z,19.15
2022-10-29T18:51:56.038Z,14.15
2022-10-29T18:54:22.954Z,16.83
2022-10-29T18:56:49.725Z,19.75
2022-10-29T18:59:16.992Z,15.95
2022-10-29T19:01:43.923Z,14.63
2022-10-29T19:04:15.841Z,18.85
2022-10-29T19:06:43.167Z,21.10
2022-10-29T19:09:12.342Z,19.08
2022-10-29T19:11:39.714Z,20.88
2022-10-29T19:14:10.574Z,16.73
2022-10-29T19:16:37.433Z,14.90
2022-10-29T19:19:08.507Z,16.52
2022-10-29T19:21:37.379Z,17.98
2022-10-29T19:24:06.173Z,16.92
2022-10-29T19:26:36.339Z,21.85
2022-10-29T19:29:05.847Z,18.08
2022-10-29T19:31:35.149Z,26.73
2022-10-29T19:34:06.234Z,15.57
2022-10-29T19:36:35.089Z,18.38
2022-10-29T19:39:02.304Z,18.60
2022-10-29T19:41:29.621Z,20.75
2022-10-29T19:44:03.454Z,16.30
2022-10-29T19:46:30.740Z,15.63
2022-10-29T19:48:58.570Z,21.90
2022-10-29T19:51:26.588Z,23.65
2022-10-29T19:53:53.426Z,18.23
2022-10-29T19:56:21.478Z,18.25
2022-10-29T19:58:48.365Z,20.33
2022-10-29T20:01:18.441Z,21.50
2022-10-29T20:03:46.949Z,18.00
2022-10-29T20:06:15.021Z,18.90
2022-10-29T20:08:41.951Z,19.52
2022-10-29T20:11:09.283Z,17.17
2022-10-29T20:13:36.845Z,20.85
2022-10-29T20:16:12.740Z,22.92
2022-10-29T20:18:39.607Z,21.63
2022-10-29T20:21:07.108Z,22.23
2022-10-29T20:23:34.455Z,23.23
2022-10-29T20:26:01.522Z,27.92
2022-10-29T20:28:28.293Z,25.30
2022-10-29T20:31:30.474Z,22.95
2022-10-29T20:33:59.889Z,20.92
2022-10-29T20:36:31.346Z,27.13
2022-10-29T20:38:58.534Z,26.33
2022-10-29T20:41:25.706Z,21.88
2022-10-29T20:43:55.782Z,22.67
2022-10-29T20:46:24.511Z,20.77
2022-10-29T20:48:51.781Z,25.88
2022-10-29T20:51:18.824Z,30.40
2022-10-29T20:53:45.666Z,26.45
2022-10-29T20:56:16.096Z,19.00
2022-10-29T20:58:43.940Z,22.70
2022-10-29T21:01:14.704Z,25.90
2022-10-29T21:03:42.811Z,21.58
2022-10-29T21:06:17.154Z,22.70
2022-10-29T21:08:45.756Z,25.00
2022-10-29T21:11:15.007Z,24.80
2022-10-29T21:13:42.034Z,31.30
2022-10-29T21:16:20.470Z,27.35
2022-10-29T21:18:51.611Z,27.33
2022-10-29T21:21:19.298Z,21.38
2022-10-29T21:23:46.134Z,30.05
2022-10-29T21:26:19.388Z,23.65
2022-10-29T21:28:48.050Z,25.20
2022-10-29T21:31:15.613Z,30.40
2022-10-29T21:33:42.876Z,35.95
2022-10-29T21:36:14.264Z,30.50
2022-10-29T21:38:41.327Z,23.98
2022-10-29T21:41:08.387Z,31.77
2022-10-29T21:43:35.199Z,27.20
2022-10-29T21:46:02.184Z,35.10
2022-10-29T21:48:29.456Z,29.40
2022-10-29T21:51:06.145Z,22.35
2022-10-29T21:53:33.402Z,31.80
2022-10-29T21:56:04.313Z,29.77
2022-10-29T21:58:31.729Z,24.38
2022-10-29T22:01:06.801Z,32.63
2022-10-29T22:06:23.161Z,26.98
2022-10-29T22:08:56.623Z,29.27
2022-10-29T22:11:25.259Z,33.60
2022-10-29T22:13:53.713Z,30.25
2022-10-29T22:16:22.039Z,36.95
2022-10-29T22:18:50.129Z,29.92
2022-10-29T22:21:21.838Z,33.63
2022-10-29T22:23:50.612Z,27.80
2022-10-29T22:26:20.390Z,28.80
2022-10-29T22:28:48.594Z,30.42
2022-10-29T22:31:17.863Z,29.70
2022-10-29T22:33:45.669Z,37.72
2022-10-29T22:36:19.258Z,32.63
2022-10-29T22:38:46.186Z,29.05
2022-10-29T22:41:18.008Z,29.13
2022-10-29T22:43:45.437Z,30.00
2022-10-29T22:46:14.492Z,39.42
2022-10-29T22:48:43.722Z,30.98
2022-10-29T22:51:17.869Z,35.22
2022-10-29T22:53:46.204Z,29.70
2022-10-29T22:56:21.440Z,37.50
2022-10-29T22:58:48.701Z,33.47
2022-10-29T23:01:24.497Z,28.92
2022-10-29T23:03:51.977Z,31.70
2022-10-29T23:06:22.495Z,37.50
2022-10-29T23:08:53.090Z,39.25
2022-10-29T23:11:29.303Z,34.65
2022-10-29T23:13:59.193Z,32.38
2022-10-29T23:16:30.058Z,35.95
2022-10-29T23:19:01.076Z,28.98
2022-10-29T23:21:29.442Z,31.25
2022-10-29T23:23:57.140Z,36.67
2022-10-29T23:26:25.808Z,31.50
2022-10-29T23:28:52.653Z,30.58
2022-10-29T23:31:23.423Z,34.88
2022-10-29T23:33:54.514Z,28.48
2022-10-29T23:36:23.717Z,32.22
2022-10-29T23:38:58.913Z,28.92
2022-10-29T23:41:27.884Z,30.20
2022-10-29T23:43:54.903Z,38.65
2022-10-29T23:46:21.947Z,31.33
2022-10-29T23:48:49.293Z,34.58
2022-10-29T23:51:16.402Z,35.25
2022-10-29T23:53:43.193Z,27.95
2022-10-29T23:56:10.430Z,31.73
2022-10-29T23:58:37.229Z,32.22
